Terminal Aerodrome Forecast
Issued by NWS

Home | Current Version | Previous Version | Text Only | Print | Product List | Glossary On
Versions: 1 2 3 4 5 6 7 8 9 10 11 12 13 14 15 16 17 18 19 20 21 22 23 24 25 26 27 28 29 30 31 32 33 34 35 36 37 38 39 40 41 42 43 44 45 46 47 48 49 50
000
FTUS45 KBOU 051522 AAA
TAFAPA
TAF AMD
KAPA 051522Z 0515/0612 28006KT P6SM -SHRA SCT015 OVC025
      TEMPO 0516/0518 4SM -SHRA BR BKN015
     FM051800 06011KT 5SM -RA BR BKN012 OVC020
      TEMPO 0520/0524 2SM +TSRA OVC006CB
     FM060000 12009KT 5SM -RA BR BKN010 OVC022
     FM060300 19008KT P6SM VCSH SCT020 BKN050
     FM060600 20008KT P6SM SCT050 BKN070=

USA.gov is the U.S. government's official web portal to all federal, state and local government web resources and services.